Time;durP1;ratioP1;P1;durP2;ratioP2;P2;SDS_P1;SDS_P2;PMS_P1;PMS_P2;Temp;Humidity;BMP_temperature;BMP_pressure;BME280_temperature;BME280_humidity;BME280_pressure;Samples;Min_cycle;Max_cycle;Signal;HPM_P1;HPM_P2
2022/08/06 00:00:52;;;;;;;11.9;14.4;;;;;;;19.5;100;98290;;;;
2022/08/06 00:10:52;;;;;;;11.9;14.4;;;;;;;19.4;100;98290;;;;
2022/08/06 00:20:52;;;;;;;11.9;14.4;;;;;;;19.3;100;98300;;;;
2022/08/06 00:30:52;;;;;;;11;13.6;;;;;;;19.2;100;98300;;;;
2022/08/06 00:40:52;;;;;;;11;13.6;;;;;;;19.1;100;98300;;;;
2022/08/06 00:51:52;;;;;;;11;13.6;;;;;;;19;100;98310;;;;
2022/08/06 01:01:52;;;;;;;11.1;13.5;;;;;;;18.9;100;98300;;;;
2022/08/06 01:12:52;;;;;;;11.1;13.5;;;;;;;18.8;100;98300;;;;
2022/08/06 01:22:52;;;;;;;11.1;13.5;;;;;;;18.8;100;98290;;;;
2022/08/06 01:32:52;;;;;;;9.2;10.8;;;;;;;18.8;100;98300;;;;
2022/08/06 01:43:52;;;;;;;9.2;10.8;;;;;;;18.5;100;98320;;;;
2022/08/06 01:54:52;;;;;;;9.2;10.8;;;;;;;18.3;100;98320;;;;
2022/08/06 02:04:52;;;;;;;10.9;15;;;;;;;18.2;100;98320;;;;
2022/08/06 02:14:52;;;;;;;10.9;15;;;;;;;18.4;100;98340;;;;
2022/08/06 02:25:52;;;;;;;10.9;15;;;;;;;18.6;100;98350;;;;
2022/08/06 02:35:52;;;;;;;10.3;13.5;;;;;;;18.8;100;98360;;;;
2022/08/06 02:45:52;;;;;;;10.3;13.5;;;;;;;19;100;98380;;;;
2022/08/06 02:55:52;;;;;;;10.3;13.5;;;;;;;19.1;100;98390;;;;
2022/08/06 03:06:52;;;;;;;10.1;13.8;;;;;;;19.1;100;98400;;;;
2022/08/06 03:16:52;;;;;;;10.1;13.8;;;;;;;19.2;100;98420;;;;
2022/08/06 03:26:52;;;;;;;10.1;13.8;;;;;;;19.4;100;98430;;;;
2022/08/06 03:37:52;;;;;;;10.5;13.7;;;;;;;19.6;100;98450;;;;
2022/08/06 03:48:52;;;;;;;10.5;13.7;;;;;;;19.9;100;98460;;;;
2022/08/06 03:58:52;;;;;;;9.1;14.6;;;;;;;20.1;100;98460;;;;
2022/08/06 04:08:52;;;;;;;9.1;14.6;;;;;;;20.2;100;98490;;;;
2022/08/06 04:19:52;;;;;;;9.1;14.6;;;;;;;20.4;100;98500;;;;
2022/08/06 04:30:52;;;;;;;10.4;13.3;;;;;;;20.5;100;98530;;;;
2022/08/06 04:40:52;;;;;;;10.4;13.3;;;;;;;20.8;100;98550;;;;
2022/08/06 04:51:52;;;;;;;10.4;13.3;;;;;;;21;100;98560;;;;
2022/08/06 05:02:52;;;;;;;13.5;16.9;;;;;;;21.3;100;98590;;;;
2022/08/06 05:12:52;;;;;;;13.5;16.9;;;;;;;21.4;100;98620;;;;
2022/08/06 05:22:52;;;;;;;13.5;16.9;;;;;;;21.2;100;98640;;;;
2022/08/06 05:33:52;;;;;;;12.5;16.3;;;;;;;21.1;100;98660;;;;
2022/08/06 05:44:52;;;;;;;12.5;16.3;;;;;;;21.2;100;98700;;;;
2022/08/06 05:54:52;;;;;;;12.5;16.3;;;;;;;21.3;100;98720;;;;
2022/08/06 06:05:52;;;;;;;10;13;;;;;;;21.3;100;98740;;;;
2022/08/06 06:16:52;;;;;;;10;13;;;;;;;21.4;100;98750;;;;
2022/08/06 06:26:52;;;;;;;10;13;;;;;;;21.5;100;98770;;;;
2022/08/06 06:37:52;;;;;;;10.2;15.4;;;;;;;21.6;100;98780;;;;
2022/08/06 06:47:52;;;;;;;10.2;15.4;;;;;;;21.9;100;98790;;;;
2022/08/06 06:58:52;;;;;;;7.5;10.9;;;;;;;22.5;100;98790;;;;
2022/08/06 07:09:52;;;;;;;7.5;10.9;;;;;;;22.9;100;98800;;;;
2022/08/06 07:20:52;;;;;;;7.5;10.9;;;;;;;22.7;100;98830;;;;
2022/08/06 07:31:52;;;;;;;10.8;14.3;;;;;;;22.7;100;98860;;;;
2022/08/06 07:41:52;;;;;;;10.8;14.3;;;;;;;22.8;100;98870;;;;
2022/08/06 07:52:52;;;;;;;10.8;14.3;;;;;;;22.7;100;98880;;;;
2022/08/06 08:12:52;;;;;;;5.2;7.7;;;;;;;22.4;100;98920;;;;
2022/08/06 08:23:52;;;;;;;5.2;7.7;;;;;;;22.4;100;98920;;;;
2022/08/06 08:34:52;;;;;;;5.1;8.6;;;;;;;22.4;100;98920;;;;
2022/08/06 08:45:53;;;;;;;5.1;8.6;;;;;;;22.8;100;98930;;;;
2022/08/06 08:55:52;;;;;;;5.1;8.6;;;;;;;22.8;100;98950;;;;
2022/08/06 09:06:52;;;;;;;4.2;7.3;;;;;;;22.9;100;98960;;;;
2022/08/06 09:17:52;;;;;;;4.2;7.3;;;;;;;22.8;100;98960;;;;
2022/08/06 09:28:52;;;;;;;3.5;6.4;;;;;;;23.2;100;98980;;;;
2022/08/06 09:39:52;;;;;;;3.5;6.4;;;;;;;23.2;100;98980;;;;
2022/08/06 09:49:52;;;;;;;3.5;6.4;;;;;;;22.9;100;99000;;;;
2022/08/06 09:59:52;;;;;;;2.4;5.2;;;;;;;22.9;100;99010;;;;
2022/08/06 10:09:52;;;;;;;2.4;5.2;;;;;;;22.8;100;99010;;;;
2022/08/06 10:19:52;;;;;;;2.4;5.2;;;;;;;22.7;100;99020;;;;
2022/08/06 10:30:52;;;;;;;3.1;6.3;;;;;;;22.5;100;99030;;;;
2022/08/06 10:41:52;;;;;;;3.1;6.3;;;;;;;22.2;100;99050;;;;
2022/08/06 10:51:52;;;;;;;3.1;6.3;;;;;;;22;100;99060;;;;
2022/08/06 11:02:52;;;;;;;2.5;4.1;;;;;;;21.5;100;99070;;;;
2022/08/06 11:13:52;;;;;;;2.5;4.1;;;;;;;20.9;100;99080;;;;
2022/08/06 11:23:52;;;;;;;2.5;4.1;;;;;;;20.9;100;99080;;;;
2022/08/06 11:33:52;;;;;;;4.6;8;;;;;;;20.5;100;99090;;;;
2022/08/06 11:43:52;;;;;;;4.6;8;;;;;;;20.7;100;99090;;;;
2022/08/06 11:54:52;;;;;;;4.6;8;;;;;;;20.5;100;99100;;;;
2022/08/06 12:05:52;;;;;;;2.5;5.2;;;;;;;20.7;100;99090;;;;
2022/08/06 12:15:52;;;;;;;2.5;5.2;;;;;;;20.6;100;99110;;;;
2022/08/06 12:26:52;;;;;;;2.5;5.2;;;;;;;20.6;100;99110;;;;
2022/08/06 12:36:52;;;;;;;1.3;3.9;;;;;;;20.5;100;99120;;;;
2022/08/06 12:47:52;;;;;;;1.3;3.9;;;;;;;20;100;99130;;;;
2022/08/06 12:57:52;;;;;;;1.3;3.9;;;;;;;19.4;100;99130;;;;
2022/08/06 13:08:52;;;;;;;1.8;5.1;;;;;;;19.6;100;99130;;;;
2022/08/06 13:18:52;;;;;;;1.8;5.1;;;;;;;19.6;100;99130;;;;
2022/08/06 13:28:52;;;;;;;2.2;6.2;;;;;;;19.5;100;99140;;;;
2022/08/06 13:39:52;;;;;;;2.2;6.2;;;;;;;19.4;100;99150;;;;
2022/08/06 13:49:52;;;;;;;2.2;6.2;;;;;;;19.2;100;99150;;;;
2022/08/06 14:00:52;;;;;;;3;5.4;;;;;;;19.2;100;99140;;;;
2022/08/06 14:10:54;;;;;;;3;5.4;;;;;;;18.9;100;99140;;;;
2022/08/06 14:20:52;;;;;;;3;5.4;;;;;;;18.8;100;99150;;;;
2022/08/06 14:30:52;;;;;;;3.9;6.4;;;;;;;18.9;100;99150;;;;
2022/08/06 14:52:52;;;;;;;3.9;6.4;;;;;;;18.5;100;99160;;;;
2022/08/06 15:03:52;;;;;;;3.2;5.1;;;;;;;18.4;100;99170;;;;
2022/08/06 15:14:52;;;;;;;3.2;5.1;;;;;;;18.5;100;99170;;;;
2022/08/06 15:24:52;;;;;;;3.2;5.1;;;;;;;18.5;100;99180;;;;
2022/08/06 15:34:52;;;;;;;2.2;4.2;;;;;;;18.5;100;99180;;;;
2022/08/06 15:44:52;;;;;;;2.2;4.2;;;;;;;18.5;100;99180;;;;
2022/08/06 15:54:52;;;;;;;2.2;4.2;;;;;;;18.5;100;99190;;;;
2022/08/06 16:05:52;;;;;;;1.7;3.1;;;;;;;18.4;100;99180;;;;
2022/08/06 16:15:52;;;;;;;1.7;3.1;;;;;;;18.3;100;99190;;;;
2022/08/06 16:25:52;;;;;;;1.7;3.1;;;;;;;18.2;100;99190;;;;
2022/08/06 16:36:52;;;;;;;2.2;5;;;;;;;18.2;100;99190;;;;
2022/08/06 16:47:52;;;;;;;2.2;5;;;;;;;18.2;100;99200;;;;
2022/08/06 16:57:52;;;;;;;2.2;5;;;;;;;18.2;100;99200;;;;
2022/08/06 17:08:52;;;;;;;1.6;4.5;;;;;;;18.5;100;99200;;;;
2022/08/06 17:19:52;;;;;;;1.6;4.5;;;;;;;18.7;100;99200;;;;
2022/08/06 17:29:52;;;;;;;1.4;4.2;;;;;;;18.8;100;99210;;;;
2022/08/06 17:39:52;;;;;;;1.4;4.2;;;;;;;19;100;99210;;;;
2022/08/06 17:50:52;;;;;;;1.4;4.2;;;;;;;18.9;100;99220;;;;
2022/08/06 18:01:53;;;;;;;2.2;3.9;;;;;;;18.6;100;99230;;;;
2022/08/06 18:12:52;;;;;;;2.2;3.9;;;;;;;18.7;100;99240;;;;
2022/08/06 18:22:52;;;;;;;2.2;3.9;;;;;;;18.5;100;99250;;;;
2022/08/06 18:33:52;;;;;;;6.3;9.1;;;;;;;18.3;100;99260;;;;
2022/08/06 18:43:52;;;;;;;6.3;9.1;;;;;;;18.4;100;99260;;;;
2022/08/06 18:54:52;;;;;;;6.3;9.1;;;;;;;18.4;100;99280;;;;
2022/08/06 19:04:53;;;;;;;5;8.5;;;;;;;18.4;100;99280;;;;
2022/08/06 19:15:52;;;;;;;5;8.5;;;;;;;18.3;100;99290;;;;
2022/08/06 19:25:52;;;;;;;5;8.5;;;;;;;18.1;100;99300;;;;
2022/08/06 19:35:52;;;;;;;4.3;6.3;;;;;;;18;100;99300;;;;
2022/08/06 19:46:52;;;;;;;4.3;6.3;;;;;;;18;100;99310;;;;
2022/08/06 19:57:52;;;;;;;4.3;6.3;;;;;;;17.9;100;99320;;;;
2022/08/06 20:08:52;;;;;;;5.6;8.6;;;;;;;17.9;100;99320;;;;
2022/08/06 20:19:52;;;;;;;5.6;8.6;;;;;;;17.9;100;99320;;;;
2022/08/06 20:30:52;;;;;;;6.2;10.9;;;;;;;17.9;100;99330;;;;
2022/08/06 20:40:54;;;;;;;6.2;10.9;;;;;;;17.9;100;99320;;;;
2022/08/06 20:51:52;;;;;;;6.2;10.9;;;;;;;17.6;100;99320;;;;
2022/08/06 21:02:52;;;;;;;6.7;10.4;;;;;;;17.5;100;99330;;;;
2022/08/06 21:12:53;;;;;;;6.7;10.4;;;;;;;17.6;100;99340;;;;
2022/08/06 21:23:52;;;;;;;6.7;10.4;;;;;;;17.6;100;99340;;;;
2022/08/06 21:33:52;;;;;;;6.8;9.8;;;;;;;17.4;100;99340;;;;
2022/08/06 21:44:52;;;;;;;6.8;9.8;;;;;;;17.5;100;99340;;;;
2022/08/06 21:54:53;;;;;;;6.8;9.8;;;;;;;17.4;100;99340;;;;
2022/08/06 22:05:52;;;;;;;6.4;9.9;;;;;;;17.2;100;99340;;;;
2022/08/06 22:15:52;;;;;;;6.4;9.9;;;;;;;17.2;100;99340;;;;
2022/08/06 22:26:53;;;;;;;6.4;9.9;;;;;;;17.1;100;99340;;;;
2022/08/06 22:36:52;;;;;;;6.3;10.4;;;;;;;16.9;100;99330;;;;
2022/08/06 22:46:53;;;;;;;6.3;10.4;;;;;;;16.6;100;99320;;;;
2022/08/06 22:56:52;;;;;;;6.3;10.4;;;;;;;16.3;100;99320;;;;
2022/08/06 23:06:52;;;;;;;8.1;10.2;;;;;;;16;100;99320;;;;
2022/08/06 23:17:52;;;;;;;8.1;10.2;;;;;;;15.8;100;99320;;;;
2022/08/06 23:27:52;;;;;;;8.1;10.2;;;;;;;15.5;100;99310;;;;
2022/08/06 23:37:52;;;;;;;7.9;11.1;;;;;;;15.3;100;99300;;;;
2022/08/06 23:47:52;;;;;;;7.9;11.1;;;;;;;15.1;100;99300;;;;
2022/08/06 23:57:52;;;;;;;7.9;11.1;;;;;;;15.1;100;99290;;;;
